sensor_id;sensor_type;location;lat;lon;timestamp;pressure;altitude;pressure_sealevel;temperature
20848;BMP180;10584;50.854;12.902;2022-12-07T00:00:44;97804.00;;;1.30
20848;BMP180;10584;50.854;12.902;2022-12-07T00:05:48;97804.00;;;1.10
20848;BMP180;10584;50.854;12.902;2022-12-07T00:10:51;97788.00;;;1.10
20848;BMP180;10584;50.854;12.902;2022-12-07T00:15:54;97790.00;;;1.10
20848;BMP180;10584;50.854;12.902;2022-12-07T00:21:06;97784.00;;;1.20
20848;BMP180;10584;50.854;12.902;2022-12-07T00:31:21;97778.00;;;1.00
20848;BMP180;10584;50.854;12.902;2022-12-07T00:36:25;97770.00;;;1.20
20848;BMP180;10584;50.854;12.902;2022-12-07T00:41:29;97761.00;;;1.00
20848;BMP180;10584;50.854;12.902;2022-12-07T00:46:33;97767.00;;;1.30
20848;BMP180;10584;50.854;12.902;2022-12-07T00:51:36;97754.00;;;1.00
20848;BMP180;10584;50.854;12.902;2022-12-07T00:56:39;97758.00;;;1.00
20848;BMP180;10584;50.854;12.902;2022-12-07T01:01:42;97756.00;;;1.00
20848;BMP180;10584;50.854;12.902;2022-12-07T01:06:45;97741.00;;;1.10
20848;BMP180;10584;50.854;12.902;2022-12-07T01:11:48;97745.00;;;1.00
20848;BMP180;10584;50.854;12.902;2022-12-07T01:16:52;97742.00;;;1.10
20848;BMP180;10584;50.854;12.902;2022-12-07T01:21:55;97757.00;;;1.00
20848;BMP180;10584;50.854;12.902;2022-12-07T01:26:58;97752.00;;;0.90
20848;BMP180;10584;50.854;12.902;2022-12-07T01:32:01;97754.00;;;0.90
20848;BMP180;10584;50.854;12.902;2022-12-07T01:37:04;97746.00;;;0.70
20848;BMP180;10584;50.854;12.902;2022-12-07T01:42:10;97742.00;;;0.70
20848;BMP180;10584;50.854;12.902;2022-12-07T01:47:13;97738.00;;;0.60
20848;BMP180;10584;50.854;12.902;2022-12-07T01:52:21;97749.00;;;0.60
20848;BMP180;10584;50.854;12.902;2022-12-07T01:57:26;97747.00;;;0.60
20848;BMP180;10584;50.854;12.902;2022-12-07T02:02:35;97735.00;;;0.60
20848;BMP180;10584;50.854;12.902;2022-12-07T02:07:39;97731.00;;;0.60
20848;BMP180;10584;50.854;12.902;2022-12-07T02:12:44;97724.00;;;0.40
20848;BMP180;10584;50.854;12.902;2022-12-07T02:18:01;97722.00;;;0.50
20848;BMP180;10584;50.854;12.902;2022-12-07T02:34:11;97706.00;;;0.60
20848;BMP180;10584;50.854;12.902;2022-12-07T02:44:55;97696.00;;;0.40
20848;BMP180;10584;50.854;12.902;2022-12-07T02:49:58;97686.00;;;0.30
20848;BMP180;10584;50.854;12.902;2022-12-07T02:55:03;97690.00;;;0.40
20848;BMP180;10584;50.854;12.902;2022-12-07T03:00:13;97694.00;;;0.30
20848;BMP180;10584;50.854;12.902;2022-12-07T03:05:37;97685.00;;;0.20
20848;BMP180;10584;50.854;12.902;2022-12-07T03:11:08;97692.00;;;0.10
20848;BMP180;10584;50.854;12.902;2022-12-07T03:16:31;97690.00;;;0.10
20848;BMP180;10584;50.854;12.902;2022-12-07T03:21:40;97677.00;;;0.20
20848;BMP180;10584;50.854;12.902;2022-12-07T03:26:48;97674.00;;;0.20
20848;BMP180;10584;50.854;12.902;2022-12-07T03:32:05;97667.00;;;0.20
20848;BMP180;10584;50.854;12.902;2022-12-07T03:37:23;97669.00;;;0.10
20848;BMP180;10584;50.854;12.902;2022-12-07T03:42:30;97672.00;;;0.10
20848;BMP180;10584;50.854;12.902;2022-12-07T03:53:11;97667.00;;;0.10
20848;BMP180;10584;50.854;12.902;2022-12-07T03:58:21;97659.00;;;0.10
20848;BMP180;10584;50.854;12.902;2022-12-07T04:03:24;97644.00;;;0.00
20848;BMP180;10584;50.854;12.902;2022-12-07T04:08:28;97648.00;;;0.00
20848;BMP180;10584;50.854;12.902;2022-12-07T04:13:31;97640.00;;;-0.10
20848;BMP180;10584;50.854;12.902;2022-12-07T04:18:55;97636.00;;;0.00
20848;BMP180;10584;50.854;12.902;2022-12-07T04:23:58;97624.00;;;0.00
20848;BMP180;10584;50.854;12.902;2022-12-07T04:29:01;97619.00;;;0.10
20848;BMP180;10584;50.854;12.902;2022-12-07T04:34:10;97616.00;;;0.10
20848;BMP180;10584;50.854;12.902;2022-12-07T04:39:25;97619.00;;;0.20
20848;BMP180;10584;50.854;12.902;2022-12-07T04:44:29;97604.00;;;0.00
20848;BMP180;10584;50.854;12.902;2022-12-07T04:49:32;97604.00;;;-0.20
20848;BMP180;10584;50.854;12.902;2022-12-07T04:54:35;97602.00;;;-0.20
20848;BMP180;10584;50.854;12.902;2022-12-07T04:59:38;97597.00;;;-0.20
20848;BMP180;10584;50.854;12.902;2022-12-07T05:04:47;97594.00;;;-0.20
20848;BMP180;10584;50.854;12.902;2022-12-07T05:09:50;97596.00;;;-0.10
20848;BMP180;10584;50.854;12.902;2022-12-07T05:14:56;97593.00;;;-0.10
20848;BMP180;10584;50.854;12.902;2022-12-07T05:19:59;97605.00;;;0.00
20848;BMP180;10584;50.854;12.902;2022-12-07T05:25:03;97580.00;;;0.10
20848;BMP180;10584;50.854;12.902;2022-12-07T05:30:07;97597.00;;;0.20
20848;BMP180;10584;50.854;12.902;2022-12-07T05:35:10;97575.00;;;0.20
20848;BMP180;10584;50.854;12.902;2022-12-07T05:40:14;97581.00;;;0.30
20848;BMP180;10584;50.854;12.902;2022-12-07T05:45:17;97579.00;;;0.30
20848;BMP180;10584;50.854;12.902;2022-12-07T05:50:21;97576.00;;;0.30
20848;BMP180;10584;50.854;12.902;2022-12-07T05:55:35;97572.00;;;0.30
20848;BMP180;10584;50.854;12.902;2022-12-07T06:00:38;97574.00;;;0.30
20848;BMP180;10584;50.854;12.902;2022-12-07T06:05:41;97579.00;;;0.30
20848;BMP180;10584;50.854;12.902;2022-12-07T06:10:46;97573.00;;;0.40
20848;BMP180;10584;50.854;12.902;2022-12-07T06:15:49;97566.00;;;0.40
20848;BMP180;10584;50.854;12.902;2022-12-07T06:20:52;97569.00;;;0.40
20848;BMP180;10584;50.854;12.902;2022-12-07T06:25:55;97583.00;;;0.50
20848;BMP180;10584;50.854;12.902;2022-12-07T06:30:59;97571.00;;;0.50
20848;BMP180;10584;50.854;12.902;2022-12-07T06:36:03;97574.00;;;0.50
20848;BMP180;10584;50.854;12.902;2022-12-07T06:41:06;97570.00;;;0.50
20848;BMP180;10584;50.854;12.902;2022-12-07T06:46:10;97575.00;;;0.60
20848;BMP180;10584;50.854;12.902;2022-12-07T06:51:13;97579.00;;;0.60
20848;BMP180;10584;50.854;12.902;2022-12-07T06:56:16;97588.00;;;0.60
20848;BMP180;10584;50.854;12.902;2022-12-07T07:01:19;97595.00;;;0.60
20848;BMP180;10584;50.854;12.902;2022-12-07T07:06:22;97585.00;;;0.80
20848;BMP180;10584;50.854;12.902;2022-12-07T07:11:25;97612.00;;;0.70
20848;BMP180;10584;50.854;12.902;2022-12-07T07:16:30;97607.00;;;0.80
20848;BMP180;10584;50.854;12.902;2022-12-07T07:21:33;97605.00;;;0.90
20848;BMP180;10584;50.854;12.902;2022-12-07T07:26:37;97613.00;;;0.90
20848;BMP180;10584;50.854;12.902;2022-12-07T07:31:40;97603.00;;;0.90
20848;BMP180;10584;50.854;12.902;2022-12-07T07:36:43;97600.00;;;0.90
20848;BMP180;10584;50.854;12.902;2022-12-07T07:41:47;97622.00;;;1.00
20848;BMP180;10584;50.854;12.902;2022-12-07T07:46:59;97612.00;;;1.00
20848;BMP180;10584;50.854;12.902;2022-12-07T07:52:02;97612.00;;;1.10
20848;BMP180;10584;50.854;12.902;2022-12-07T07:57:05;97622.00;;;1.00
20848;BMP180;10584;50.854;12.902;2022-12-07T08:02:18;97608.00;;;1.10
20848;BMP180;10584;50.854;12.902;2022-12-07T08:07:21;97614.00;;;1.10
20848;BMP180;10584;50.854;12.902;2022-12-07T08:12:24;97623.00;;;1.20
20848;BMP180;10584;50.854;12.902;2022-12-07T08:17:27;97608.00;;;1.20
20848;BMP180;10584;50.854;12.902;2022-12-07T08:22:30;97622.00;;;1.20
20848;BMP180;10584;50.854;12.902;2022-12-07T08:27:33;97616.00;;;1.30
20848;BMP180;10584;50.854;12.902;2022-12-07T08:32:36;97621.00;;;1.10
20848;BMP180;10584;50.854;12.902;2022-12-07T08:37:40;97618.00;;;1.30
20848;BMP180;10584;50.854;12.902;2022-12-07T08:42:44;97624.00;;;1.30
20848;BMP180;10584;50.854;12.902;2022-12-07T08:53:27;97635.00;;;1.40
20848;BMP180;10584;50.854;12.902;2022-12-07T08:58:30;97618.00;;;1.30
20848;BMP180;10584;50.854;12.902;2022-12-07T09:03:34;97640.00;;;1.50
20848;BMP180;10584;50.854;12.902;2022-12-07T09:08:41;97639.00;;;1.50
20848;BMP180;10584;50.854;12.902;2022-12-07T09:13:45;97617.00;;;1.60
20848;BMP180;10584;50.854;12.902;2022-12-07T09:18:48;97636.00;;;1.60
20848;BMP180;10584;50.854;12.902;2022-12-07T09:23:51;97635.00;;;1.70
20848;BMP180;10584;50.854;12.902;2022-12-07T09:28:54;97638.00;;;1.90
20848;BMP180;10584;50.854;12.902;2022-12-07T09:34:00;97631.00;;;2.00
20848;BMP180;10584;50.854;12.902;2022-12-07T09:39:04;97626.00;;;2.10
20848;BMP180;10584;50.854;12.902;2022-12-07T09:44:14;97629.00;;;2.10
20848;BMP180;10584;50.854;12.902;2022-12-07T09:49:21;97625.00;;;2.10
20848;BMP180;10584;50.854;12.902;2022-12-07T09:54:30;97614.00;;;2.10
20848;BMP180;10584;50.854;12.902;2022-12-07T09:59:34;97615.00;;;2.10
20848;BMP180;10584;50.854;12.902;2022-12-07T10:04:38;97607.00;;;2.30
20848;BMP180;10584;50.854;12.902;2022-12-07T10:09:41;97607.00;;;2.30
20848;BMP180;10584;50.854;12.902;2022-12-07T10:15:03;97600.00;;;2.40
20848;BMP180;10584;50.854;12.902;2022-12-07T10:20:27;97607.00;;;2.40
20848;BMP180;10584;50.854;12.902;2022-12-07T10:25:33;97596.00;;;2.40
20848;BMP180;10584;50.854;12.902;2022-12-07T10:30:57;97591.00;;;2.40
20848;BMP180;10584;50.854;12.902;2022-12-07T10:41:20;97593.00;;;2.50
20848;BMP180;10584;50.854;12.902;2022-12-07T10:46:30;97584.00;;;2.60
20848;BMP180;10584;50.854;12.902;2022-12-07T10:51:46;97583.00;;;2.60
20848;BMP180;10584;50.854;12.902;2022-12-07T10:57:21;97576.00;;;2.60
20848;BMP180;10584;50.854;12.902;2022-12-07T11:02:47;97580.00;;;2.80
20848;BMP180;10584;50.854;12.902;2022-12-07T11:08:02;97572.00;;;2.90
20848;BMP180;10584;50.854;12.902;2022-12-07T11:18:26;97576.00;;;3.00
20848;BMP180;10584;50.854;12.902;2022-12-07T11:39:46;97572.00;;;2.90
20848;BMP180;10584;50.854;12.902;2022-12-07T11:44:59;97562.00;;;2.90
20848;BMP180;10584;50.854;12.902;2022-12-07T11:55:56;97553.00;;;3.00
20848;BMP180;10584;50.854;12.902;2022-12-07T12:06:25;97538.00;;;3.00
20848;BMP180;10584;50.854;12.902;2022-12-07T12:11:42;97537.00;;;3.00
20848;BMP180;10584;50.854;12.902;2022-12-07T12:22:19;97532.00;;;3.20
20848;BMP180;10584;50.854;12.902;2022-12-07T12:27:36;97523.00;;;3.10
20848;BMP180;10584;50.854;12.902;2022-12-07T12:32:41;97529.00;;;3.10
20848;BMP180;10584;50.854;12.902;2022-12-07T12:37:46;97539.00;;;3.00
20848;BMP180;10584;50.854;12.902;2022-12-07T12:42:54;97533.00;;;3.00
20848;BMP180;10584;50.854;12.902;2022-12-07T12:48:02;97516.00;;;3.00
20848;BMP180;10584;50.854;12.902;2022-12-07T12:53:24;97522.00;;;3.10
20848;BMP180;10584;50.854;12.902;2022-12-07T12:58:37;97504.00;;;3.10
20848;BMP180;10584;50.854;12.902;2022-12-07T13:03:53;97512.00;;;3.20
20848;BMP180;10584;50.854;12.902;2022-12-07T13:09:15;97499.00;;;3.20
20848;BMP180;10584;50.854;12.902;2022-12-07T13:20:46;97503.00;;;3.20
20848;BMP180;10584;50.854;12.902;2022-12-07T13:25:58;97496.00;;;3.20
20848;BMP180;10584;50.854;12.902;2022-12-07T13:31:34;97502.00;;;3.20
20848;BMP180;10584;50.854;12.902;2022-12-07T13:36:39;97509.00;;;3.30
20848;BMP180;10584;50.854;12.902;2022-12-07T13:41:43;97498.00;;;3.20
20848;BMP180;10584;50.854;12.902;2022-12-07T13:46:57;97498.00;;;3.20
20848;BMP180;10584;50.854;12.902;2022-12-07T13:52:28;97493.00;;;3.20
20848;BMP180;10584;50.854;12.902;2022-12-07T13:57:33;97505.00;;;3.30
20848;BMP180;10584;50.854;12.902;2022-12-07T14:02:59;97498.00;;;3.40
20848;BMP180;10584;50.854;12.902;2022-12-07T14:08:26;97496.00;;;3.40
20848;BMP180;10584;50.854;12.902;2022-12-07T14:18:40;97485.00;;;3.20
20848;BMP180;10584;50.854;12.902;2022-12-07T14:23:43;97490.00;;;3.20
20848;BMP180;10584;50.854;12.902;2022-12-07T14:28:47;97488.00;;;3.30
20848;BMP180;10584;50.854;12.902;2022-12-07T14:33:50;97504.00;;;3.30
20848;BMP180;10584;50.854;12.902;2022-12-07T14:38:53;97488.00;;;3.20
20848;BMP180;10584;50.854;12.902;2022-12-07T14:43:59;97498.00;;;3.20
20848;BMP180;10584;50.854;12.902;2022-12-07T14:49:22;97503.00;;;3.00
20848;BMP180;10584;50.854;12.902;2022-12-07T14:54:41;97514.00;;;3.00
20848;BMP180;10584;50.854;12.902;2022-12-07T14:59:45;97512.00;;;2.90
20848;BMP180;10584;50.854;12.902;2022-12-07T15:04:48;97511.00;;;2.90
20848;BMP180;10584;50.854;12.902;2022-12-07T15:09:52;97513.00;;;2.80
20848;BMP180;10584;50.854;12.902;2022-12-07T15:14:55;97524.00;;;2.90
20848;BMP180;10584;50.854;12.902;2022-12-07T15:19:58;97520.00;;;2.80
20848;BMP180;10584;50.854;12.902;2022-12-07T15:25:01;97523.00;;;2.60
20848;BMP180;10584;50.854;12.902;2022-12-07T15:30:08;97523.00;;;2.70
20848;BMP180;10584;50.854;12.902;2022-12-07T15:35:11;97530.00;;;2.50
20848;BMP180;10584;50.854;12.902;2022-12-07T15:40:14;97523.00;;;2.50
20848;BMP180;10584;50.854;12.902;2022-12-07T15:45:17;97526.00;;;2.60
20848;BMP180;10584;50.854;12.902;2022-12-07T15:50:20;97529.00;;;2.60
20848;BMP180;10584;50.854;12.902;2022-12-07T15:55:24;97522.00;;;2.60
20848;BMP180;10584;50.854;12.902;2022-12-07T16:00:27;97521.00;;;2.40
20848;BMP180;10584;50.854;12.902;2022-12-07T16:05:30;97518.00;;;2.40
20848;BMP180;10584;50.854;12.902;2022-12-07T16:10:33;97520.00;;;2.40
20848;BMP180;10584;50.854;12.902;2022-12-07T16:15:41;97521.00;;;2.30
20848;BMP180;10584;50.854;12.902;2022-12-07T16:20:48;97523.00;;;2.30
20848;BMP180;10584;50.854;12.902;2022-12-07T16:25:51;97518.00;;;2.40
20848;BMP180;10584;50.854;12.902;2022-12-07T16:31:06;97524.00;;;2.30
20848;BMP180;10584;50.854;12.902;2022-12-07T16:36:11;97518.00;;;2.30
20848;BMP180;10584;50.854;12.902;2022-12-07T16:41:16;97528.00;;;2.40
20848;BMP180;10584;50.854;12.902;2022-12-07T16:46:19;97539.00;;;2.20
20848;BMP180;10584;50.854;12.902;2022-12-07T16:51:22;97521.00;;;2.20
20848;BMP180;10584;50.854;12.902;2022-12-07T16:56:25;97519.00;;;2.30
20848;BMP180;10584;50.854;12.902;2022-12-07T17:01:29;97533.00;;;2.20
20848;BMP180;10584;50.854;12.902;2022-12-07T17:06:33;97514.00;;;2.10
20848;BMP180;10584;50.854;12.902;2022-12-07T17:11:36;97520.00;;;2.20
20848;BMP180;10584;50.854;12.902;2022-12-07T17:16:40;97525.00;;;2.10
20848;BMP180;10584;50.854;12.902;2022-12-07T17:21:44;97528.00;;;2.00
20848;BMP180;10584;50.854;12.902;2022-12-07T17:26:47;97522.00;;;2.10
20848;BMP180;10584;50.854;12.902;2022-12-07T17:31:50;97519.00;;;2.00
20848;BMP180;10584;50.854;12.902;2022-12-07T17:36:53;97517.00;;;2.10
20848;BMP180;10584;50.854;12.902;2022-12-07T17:41:57;97514.00;;;2.00
20848;BMP180;10584;50.854;12.902;2022-12-07T17:47:18;97524.00;;;2.10
20848;BMP180;10584;50.854;12.902;2022-12-07T17:52:23;97527.00;;;2.20
20848;BMP180;10584;50.854;12.902;2022-12-07T17:57:44;97525.00;;;1.90
20848;BMP180;10584;50.854;12.902;2022-12-07T18:02:47;97519.00;;;1.90
20848;BMP180;10584;50.854;12.902;2022-12-07T18:07:50;97533.00;;;1.90
20848;BMP180;10584;50.854;12.902;2022-12-07T18:12:54;97532.00;;;2.00
20848;BMP180;10584;50.854;12.902;2022-12-07T18:18:17;97524.00;;;2.00
20848;BMP180;10584;50.854;12.902;2022-12-07T18:23:20;97527.00;;;2.00
20848;BMP180;10584;50.854;12.902;2022-12-07T18:28:24;97520.00;;;2.00
20848;BMP180;10584;50.854;12.902;2022-12-07T18:33:27;97510.00;;;2.00
20848;BMP180;10584;50.854;12.902;2022-12-07T18:38:30;97523.00;;;2.20
20848;BMP180;10584;50.854;12.902;2022-12-07T18:43:33;97514.00;;;2.00
20848;BMP180;10584;50.854;12.902;2022-12-07T18:48:37;97528.00;;;2.20
20848;BMP180;10584;50.854;12.902;2022-12-07T18:53:40;97520.00;;;2.20
20848;BMP180;10584;50.854;12.902;2022-12-07T18:58:45;97502.00;;;2.10
20848;BMP180;10584;50.854;12.902;2022-12-07T19:04:09;97516.00;;;2.10
20848;BMP180;10584;50.854;12.902;2022-12-07T19:09:13;97515.00;;;2.20
20848;BMP180;10584;50.854;12.902;2022-12-07T19:14:18;97531.00;;;2.20
20848;BMP180;10584;50.854;12.902;2022-12-07T19:19:23;97514.00;;;2.00
20848;BMP180;10584;50.854;12.902;2022-12-07T19:24:27;97522.00;;;2.00
20848;BMP180;10584;50.854;12.902;2022-12-07T19:29:31;97518.00;;;2.00
20848;BMP180;10584;50.854;12.902;2022-12-07T19:34:35;97509.00;;;2.00
20848;BMP180;10584;50.854;12.902;2022-12-07T19:39:41;97512.00;;;2.20
20848;BMP180;10584;50.854;12.902;2022-12-07T19:44:49;97503.00;;;2.20
20848;BMP180;10584;50.854;12.902;2022-12-07T19:49:53;97500.00;;;2.20
20848;BMP180;10584;50.854;12.902;2022-12-07T19:54:56;97496.00;;;2.10
20848;BMP180;10584;50.854;12.902;2022-12-07T19:59:59;97486.00;;;2.20
20848;BMP180;10584;50.854;12.902;2022-12-07T20:05:02;97494.00;;;2.10
20848;BMP180;10584;50.854;12.902;2022-12-07T20:10:08;97496.00;;;2.20
20848;BMP180;10584;50.854;12.902;2022-12-07T20:15:15;97495.00;;;2.00
20848;BMP180;10584;50.854;12.902;2022-12-07T20:20:18;97485.00;;;2.10
20848;BMP180;10584;50.854;12.902;2022-12-07T20:25:22;97486.00;;;2.00
20848;BMP180;10584;50.854;12.902;2022-12-07T20:30:25;97481.00;;;2.10
20848;BMP180;10584;50.854;12.902;2022-12-07T20:35:29;97477.00;;;2.00
20848;BMP180;10584;50.854;12.902;2022-12-07T20:40:32;97476.00;;;2.10
20848;BMP180;10584;50.854;12.902;2022-12-07T20:45:35;97471.00;;;2.20
20848;BMP180;10584;50.854;12.902;2022-12-07T20:50:38;97473.00;;;2.10
20848;BMP180;10584;50.854;12.902;2022-12-07T20:55:44;97474.00;;;2.10
20848;BMP180;10584;50.854;12.902;2022-12-07T21:00:47;97475.00;;;2.30
20848;BMP180;10584;50.854;12.902;2022-12-07T21:05:50;97470.00;;;2.30
20848;BMP180;10584;50.854;12.902;2022-12-07T21:10:53;97465.00;;;2.20
20848;BMP180;10584;50.854;12.902;2022-12-07T21:15:56;97475.00;;;2.30
20848;BMP180;10584;50.854;12.902;2022-12-07T21:21:01;97468.00;;;2.30
20848;BMP180;10584;50.854;12.902;2022-12-07T21:26:09;97468.00;;;2.30
20848;BMP180;10584;50.854;12.902;2022-12-07T21:31:13;97463.00;;;2.30
20848;BMP180;10584;50.854;12.902;2022-12-07T21:36:19;97457.00;;;2.30
20848;BMP180;10584;50.854;12.902;2022-12-07T21:41:26;97465.00;;;2.10
20848;BMP180;10584;50.854;12.902;2022-12-07T21:46:29;97451.00;;;2.10
20848;BMP180;10584;50.854;12.902;2022-12-07T21:51:36;97447.00;;;2.00
20848;BMP180;10584;50.854;12.902;2022-12-07T21:56:41;97447.00;;;2.10
20848;BMP180;10584;50.854;12.902;2022-12-07T22:01:44;97450.00;;;2.00
20848;BMP180;10584;50.854;12.902;2022-12-07T22:06:51;97452.00;;;1.90
20848;BMP180;10584;50.854;12.902;2022-12-07T22:11:54;97455.00;;;1.90
20848;BMP180;10584;50.854;12.902;2022-12-07T22:16:57;97463.00;;;2.00
20848;BMP180;10584;50.854;12.902;2022-12-07T22:22:01;97452.00;;;2.00
20848;BMP180;10584;50.854;12.902;2022-12-07T22:27:04;97449.00;;;1.90
20848;BMP180;10584;50.854;12.902;2022-12-07T22:32:07;97440.00;;;2.00
20848;BMP180;10584;50.854;12.902;2022-12-07T22:37:30;97434.00;;;1.80
20848;BMP180;10584;50.854;12.902;2022-12-07T22:42:34;97445.00;;;1.80
20848;BMP180;10584;50.854;12.902;2022-12-07T22:47:38;97441.00;;;1.70
20848;BMP180;10584;50.854;12.902;2022-12-07T22:52:42;97437.00;;;1.90
20848;BMP180;10584;50.854;12.902;2022-12-07T22:57:45;97441.00;;;1.90
20848;BMP180;10584;50.854;12.902;2022-12-07T23:02:48;97431.00;;;1.80
20848;BMP180;10584;50.854;12.902;2022-12-07T23:07:51;97434.00;;;1.80
20848;BMP180;10584;50.854;12.902;2022-12-07T23:12:54;97422.00;;;1.90
20848;BMP180;10584;50.854;12.902;2022-12-07T23:18:19;97422.00;;;1.90
20848;BMP180;10584;50.854;12.902;2022-12-07T23:23:22;97416.00;;;2.10
20848;BMP180;10584;50.854;12.902;2022-12-07T23:28:25;97411.00;;;2.00
20848;BMP180;10584;50.854;12.902;2022-12-07T23:33:28;97414.00;;;1.90
20848;BMP180;10584;50.854;12.902;2022-12-07T23:38:31;97409.00;;;2.00
20848;BMP180;10584;50.854;12.902;2022-12-07T23:43:39;97395.00;;;1.90
20848;BMP180;10584;50.854;12.902;2022-12-07T23:48:43;97392.00;;;2.10
20848;BMP180;10584;50.854;12.902;2022-12-07T23:53:48;97386.00;;;2.00
20848;BMP180;10584;50.854;12.902;2022-12-07T23:58:52;97382.00;;;1.90
